Latest Coastal Weather Observations for Eucla

IDW60701

Issued at 7:53 am WST Thursday 29 September 2016 (issued every 10 minutes, with the page automatically refreshed every 10 minutes)

About coastal observations | Map of coastal stations | Coastal observations for WA | Marine services | Other Formats
Station Details ID: 011003 Name: EUCLA Lat: -31.68 Lon: 128.90 Height: 93.1 m
Data from the previous 72 hours. | See also: Recent months at Eucla
Date/Time
WST
Temp
°C
Wind Pressure Rain since
9am
mm
Weather Cloud Vis
km
Sea
Height
m
Swell
Dir  Spd
kts
Gust
kts
hPa Trend Height
m
Period
s
Dir
29/07:30am 9.1 SSW 16 27 1015.2 - 7.0 - - - - - - -
29/07:18am 10.3 SW 15 26 1014.9 - 7.0 - - - - - - -
29/07:00am 10.3 SW 16 25 1014.5 - 7.0 - - - - - - -
29/06:45am 9.3 SW 15 27 1014.4 - 7.0 - - - - - - -
29/06:30am 8.4 SW 14 23 1014.3 - 7.0 - - - - - - -
29/06:00am 8.4 SSW 17 28 1014.0 - 6.6 Recent precip. - - - - - -
29/05:30am 8.4 SW 16 33 1013.5 - 6.6 - - - - - - -
29/05:02am 8.3 SW 15 28 1013.2 - 6.4 - - - - - - -
29/05:00am 8.5 SW 14 28 1013.1 - 6.4 - - - - - - -
29/04:30am 9.2 SW 15 26 1013.0 - 6.4 - - - - - - -
29/04:00am 9.3 SW 17 27 1012.3 - 6.4 - - - - - - -
29/03:30am 9.1 SW 16 29 1011.9 - 6.4 - - - - - - -
29/03:00am 8.6 SW 18 30 1011.6 - 6.4 Recent precip. - - - - - -
29/02:30am 9.5 SW 17 29 1011.3 - 6.4 - - - - - - -
29/02:00am 9.2 SW 18 30 1011.1 - 6.2 - - - - - - -
29/01:30am 8.5 SW 17 28 1011.1 - 6.2 - - - - - - -
29/01:00am 9.5 SW 19 32 1010.8 - 6.0 - - - - - - -
29/12:30am 8.6 WSW 15 26 1011.1 - 6.0 - - - - - - -
29/12:00am 8.2 SW 18 29 1011.3 - 6.0 Recent precip. - - - - - -
 
Date/Time
WST
Temp
°C
Wind Pressure Rain since
9am
mm
Weather Cloud Vis
km
Sea
Height
m
Swell
Dir  Spd
kts
Gust
kts
hPa Trend Height
m
Period
s
Dir
28/11:46pm 8.3 SW 15 27 1011.3 - 6.0 - - - - - - -
28/11:30pm 6.7 WSW 12 19 1011.4 - 6.0 - - - - - - -
28/11:09pm 6.8 W 15 27 1011.5 - 6.0 - - - - - - -
28/11:00pm 6.9 WSW 14 31 1011.4 - 5.6 - - - - - - -
28/10:52pm 6.9 W 15 31 1011.6 - 5.6 - - - - - - -
28/10:30pm 6.7 W 13 20 1011.8 - 5.6 - - - - - - -
28/10:00pm 6.6 W 16 27 1012.0 - 5.4 - - - - - - -
28/09:30pm 6.6 WSW 17 29 1011.9 - 5.0 - - - - - - -
28/09:25pm 6.6 W 15 29 1012.1 - 4.8 - - - - - - -
28/09:00pm 6.7 W 13 19 1011.6 - 4.0 Recent precip. - - - - - -
28/08:30pm 6.5 W 15 26 1011.4 - 3.8 - - - - - - -
28/08:04pm 6.8 W 15 26 1011.6 - 3.8 - - - - - - -
28/08:00pm 7.0 W 14 20 1011.9 - 3.6 - - - - - - -
28/07:30pm 7.0 W 15 25 1011.3 - 3.4 - - - - - - -
28/07:20pm 6.9 W 15 25 1011.3 - 3.4 - - - - - - -
28/07:00pm 6.5 W 12 20 1011.2 - 3.4 - - - - - - -
28/06:30pm 6.9 W 12 21 1011.1 - 3.2 - - - - - - -
28/06:00pm 7.2 W 14 21 1010.7 - 2.8 - - - - - - -
28/05:32pm 7.6 WSW 15 25 1010.5 - 2.8 - - - - - - -
28/05:30pm 7.6 WSW 16 25 1010.4 - 2.8 - - - - - - -
28/05:00pm 7.9 W 16 26 1009.8 - 2.8 - - - - - - -
28/04:30pm 7.8 WSW 16 31 1009.2 - 2.8 - - - - - - -
28/04:07pm 7.2 W 17 28 1008.6 - 2.8 - - - - - - -
28/04:00pm 6.8 W 17 26 1008.6 - 2.8 - - - - - - -
28/03:31pm 8.7 WSW 18 28 1008.3 - 1.2 - - - - - - -
28/03:30pm 8.9 WSW 18 27 1008.1 - 1.2 - - - - - - -
28/03:00pm 10.7 W 17 31 1007.0 - 0.8 Distant precip. Partly cloudy 10 - - - -
28/02:30pm 8.9 WSW 23 43 1007.6 - 0.8 - - - - - - -
28/02:24pm 9.4 WSW 24 43 1007.5 - 0.8 - - - - - - -
28/02:00pm 11.2 W 19 33 1006.3 - 0.8 - - - - - - -
28/01:30pm 8.0 W 19 30 1006.7 - 0.8 - - - - - - -
28/01:00pm 8.5 WSW 20 34 1006.3 - 0.4 - - - - - - -
28/12:30pm 12.2 W 22 36 1005.5 - 0.2 - - - - - - -
28/12:00pm 8.5 WSW 19 37 1006.0 - 0.2 Rain - - - - - -
28/11:30am 11.8 WSW 21 34 1005.8 - 0.0 - - - - - - -
28/11:00am 10.0 W 20 34 1005.8 - 0.0 - - - - - - -
28/10:30am 11.3 WSW 21 32 1005.3 - 0.0 - - - - - - -
28/10:00am 10.1 WSW 21 33 1005.2 - 0.0 - - - - - - -
28/09:30am 13.3 W 20 35 1004.0 - 0.0 - - - - - - -
28/09:00am 14.0 W 22 34 1003.6 - 0.0 Fine Mostly cloudy 40 - - - -
28/08:30am 13.8 W 21 35 1003.3 - 0.0 - - - - - - -
28/08:00am 12.9 W 19 30 1003.1 - 0.0 - - - - - - -
28/07:30am 13.1 W 16 27 1002.7 - 0.0 - - - - - - -
28/07:00am 12.5 W 17 27 1002.4 - 0.0 - - - - - - -
28/06:30am 12.2 W 20 32 1002.1 - 0.0 - - - - - - -
28/06:19am 12.2 W 15 33 1001.9 - 0.0 - - - - - - -
28/06:00am 12.1 W 14 24 1001.8 - 0.0 - - - - - - -
28/05:47am 11.5 W 15 25 1001.6 - 0.0 - - - - - - -
28/05:30am 11.6 WNW 14 22 1001.1 - 0.0 - - - - - - -
28/05:00am 12.2 W 17 27 1000.7 - 0.0 - - - - - - -
28/04:46am 12.9 W 15 26 1000.4 - 0.0 - - - - - - -
28/04:30am 12.9 W 12 19 1000.0 - 0.0 - - - - - - -
28/04:00am 13.3 W 12 20 999.7 - 0.0 - - - - - - -
28/03:30am 12.8 WSW 11 16 999.8 - 0.0 - - - - - - -
28/03:00am 13.5 WSW 19 33 999.7 - 0.0 - - - - - - -
28/02:30am 14.8 WSW 18 31 999.2 - 0.0 - - - - - - -
28/02:05am 17.5 NNW 15 26 997.7 - 0.0 - - - - - - -
28/02:00am 17.5 NNW 14 20 996.8 - 0.0 - - - - - - -
28/01:30am 16.5 N 12 18 996.3 - 0.0 - - - - - - -
28/01:00am 16.3 N 13 17 997.1 - 0.0 - - - - - - -
28/12:30am 15.5 N 12 16 998.2 - 0.0 - - - - - - -
28/12:00am 14.8 N 11 16 999.2 - 0.0 - - - - - - -
 
Date/Time
WST
Temp
°C
Wind Pressure Rain since
9am
mm
Weather Cloud Vis
km
Sea
Height
m
Swell
Dir  Spd
kts
Gust
kts
hPa Trend Height
m
Period
s
Dir
27/11:30pm 15.1 N 11 15 1000.2 - 0.0 - - - - - - -
27/11:00pm 14.5 NNE 10 14 1001.0 - 0.0 - - - - - - -
27/10:30pm 14.3 NNE 9 12 1001.9 - 0.0 - - - - - - -
27/10:00pm 14.3 NNE 8 10 1002.9 - 0.0 - - - - - - -
27/09:30pm 14.3 NNE 9 10 1003.6 - 0.0 - - - - - - -
27/09:00pm 14.8 NNE 8 10 1004.2 - 0.0 - - - - - - -
27/08:30pm 15.0 NNE 7 9 1004.8 - 0.0 - - - - - - -
27/08:00pm 16.6 NNE 7 9 1005.2 - 0.0 - - - - - - -
27/07:30pm 17.5 NNE 7 10 1005.4 - 0.0 - - - - - - -
27/07:00pm 18.4 NNE 7 9 1005.7 - 0.0 - - - - - - -
27/06:30pm 18.8 NNE 7 9 1006.0 - 0.0 - - - - - - -
27/06:00pm 19.7 NNE 7 10 1006.2 - 0.0 - - - - - - -
27/05:30pm 18.4 N 6 8 1006.3 - 0.0 - - - - - - -
27/05:00pm 20.3 ENE 7 10 1006.4 - 0.0 - - - - - - -
27/04:30pm 22.0 NE 7 12 1006.7 - 0.0 - - - - - - -
27/04:00pm 24.6 NNW 9 16 1006.9 - 0.0 - - - - - - -
27/03:30pm 23.6 WNW 7 14 1007.2 - 0.0 - - - - - - -
27/03:00pm 23.7 WNW 5 10 1007.6 - 0.0 Fine Clear 40 - - - -
27/02:30pm 25.2 NNW 7 17 1008.6 - 0.0 - - - - - - -
27/02:00pm 26.0 NNW 9 16 1009.0 - 0.0 - - - - - - -
27/01:30pm 25.7 N 6 17 1009.6 - 0.0 - - - - - - -
27/01:00pm 26.0 NNW 8 15 1010.3 - 0.0 - - - - - - -
27/12:30pm 24.4 NNW 7 17 1010.9 - 0.0 - - - - - - -
27/12:00pm 24.8 NNW 9 15 1011.9 - 0.0 - - - - - - -
27/11:30am 24.7 NW 7 14 1012.6 - 0.0 - - - - - - -
27/11:00am 23.7 NNW 7 12 1013.4 - 0.0 - - - - - - -
27/10:30am 23.2 NNW 8 15 1014.0 - 0.0 - - - - - - -
27/10:00am 22.6 N 9 15 1014.7 - 0.0 - - - - - - -
27/09:30am 21.0 NNW 10 15 1015.1 - 0.0 - - - - - - -
27/09:00am 19.9 N 12 18 1015.4 - 0.0 Fine Clear 40 - - - -
27/08:30am 18.4 N 12 16 1015.7 - 0.0 - - - - - - -
27/08:00am 17.1 N 12 18 1015.9 - 0.0 - - - - - - -
27/07:30am 15.1 N 13 18 1016.0 - 0.0 - - - - - - -
27/07:00am 12.7 N 12 18 1016.0 - 0.0 - - - - - - -
27/06:30am 10.4 N 11 17 1016.0 - 0.0 - - - - - - -
27/06:00am 8.0 N 11 16 1016.0 - 0.0 - - - - - - -
27/05:30am 6.4 N 10 14 1015.9 - 0.0 - - - - - - -
27/05:00am 6.3 N 10 15 1015.7 - 0.0 - - - - - - -
27/04:30am 6.5 N 10 13 1015.6 - 0.0 - - - - - - -
27/04:00am 6.4 N 9 12 1015.6 - 0.0 - - - - - - -
27/03:30am 6.1 N 9 12 1015.2 - 0.0 - - - - - - -
27/03:00am 5.7 N 9 12 1015.1 - 0.0 - - - - - - -
27/02:30am 5.7 N 9 13 1015.2 - 0.0 - - - - - - -
27/02:00am 5.8 N 9 11 1015.5 - 0.0 - - - - - - -
27/01:30am 5.3 N 7 9 1015.9 - 0.0 - - - - - - -
27/01:00am 4.8 N 8 9 1016.0 - 0.0 - - - - - - -
27/12:30am 4.7 N 7 9 1016.5 - 0.0 - - - - - - -
27/12:00am 4.6 N 7 7 1016.9 - 0.0 - - - - - - -
 
Date/Time
WST
Temp
°C
Wind Pressure Rain since
9am
mm
Weather Cloud Vis
km
Sea
Height
m
Swell
Dir  Spd
kts
Gust
kts
hPa Trend Height
m
Period
s
Dir
26/11:30pm 5.7 NNE 6 7 1017.1 - 0.0 - - - - - - -
26/11:00pm 5.9 NNE 7 7 1017.5 - 0.0 - - - - - - -
26/10:30pm 5.8 NNE 6 7 1017.8 - 0.0 - - - - - - -
26/10:00pm 5.3 NNE 6 7 1017.9 - 0.0 - - - - - - -
26/09:30pm 5.6 NNE 5 6 1018.1 - 0.0 - - - - - - -
26/09:00pm 6.3 NNE 5 6 1018.1 - 0.0 - - - - - - -
26/08:30pm 7.5 ENE 5 6 1018.2 - 0.0 - - - - - - -
26/08:00pm 8.0 ESE 5 5 1018.2 - 0.0 - - - - - - -
26/07:30pm 8.7 SE 4 5 1018.0 - 0.0 - - - - - - -
26/07:00pm 9.5 SE 4 5 1017.6 - 0.0 - - - - - - -
26/06:30pm 10.5 SE 4 6 1017.4 - 0.0 - - - - - - -
26/06:00pm 10.9 SSE 5 6 1017.2 - 0.0 - - - - - - -
26/05:30pm 11.6 S 5 7 1017.1 - 0.0 - - - - - - -
26/05:00pm 12.9 SSE 7 10 1017.1 - 0.0 - - - - - - -
26/04:30pm 13.8 SSE 7 12 1016.9 - 0.0 - - - - - - -
26/04:00pm 14.4 SSE 7 11 1016.6 - 0.0 - - - - - - -
26/03:30pm 14.7 SSE 8 11 1016.5 - 0.0 - - - - - - -
26/03:00pm 15.8 SSE 8 12 1016.3 - 0.0 Fine Clear 40 - - - -
26/02:30pm 15.6 SSE 9 15 1016.3 - 0.0 - - - - - - -
26/02:00pm 15.5 S 9 16 1016.5 - 0.0 - - - - - - -
26/01:30pm 16.1 SSE 9 15 1016.5 - 0.0 - - - - - - -
26/01:00pm 16.3 SSW 9 15 1016.6 - 0.0 - - - - - - -
26/12:30pm 16.3 SSE 10 15 1017.3 - 0.0 - - - - - - -
26/12:00pm 16.5 SSE 8 14 1017.5 - 0.0 - - - - - - -
26/11:30am 17.0 S 9 14 1017.7 - 0.0 - - - - - - -
26/11:00am 16.3 S 8 14 1017.8 - 0.0 - - - - - - -
26/10:30am 15.5 S 8 14 1018.1 - 0.0 - - - - - - -
26/10:00am 16.1 S 7 14 1018.4 - 0.0 - - - - - - -
26/09:30am 15.2 S 8 14 1018.6 - 0.0 - - - - - - -
26/09:00am 14.2 S 8 14 1018.7 - 0.0 Haze Partly cloudy 25 - - - -
26/08:30am 15.0 SSW 8 14 1018.7 - 0.0 - - - - - - -
26/08:00am 14.7 SSW 8 12 1018.4 - 0.0 - - - - - - -

Other Formats:

Comma delimited format used in spreadsheet applications
http://www.bom.gov.au/fwo/IDW60701/IDW60701.94647.axf

JavaScript Object Notation format (JSON) in row-major order
http://www.bom.gov.au/fwo/IDW60701/IDW60701.94647.json